createdAt,value
2016-06-15T00:00:41.253Z,0
2016-06-15T00:01:41.241Z,0
2016-06-15T00:02:41.244Z,0
2016-06-15T00:03:41.200Z,0
2016-06-15T00:04:41.437Z,0
2016-06-15T00:05:41.175Z,0
2016-06-15T00:06:41.131Z,0
2016-06-15T00:07:41.103Z,0
2016-06-15T00:08:41.090Z,0
2016-06-15T00:09:41.062Z,0
2016-06-15T00:10:41.066Z,0
2016-06-15T00:11:41.052Z,0
2016-06-15T00:12:41.009Z,0
2016-06-15T00:13:40.980Z,0
2016-06-15T00:14:40.984Z,0
2016-06-15T00:15:40.940Z,0
2016-06-15T00:16:40.928Z,0
2016-06-15T00:17:40.915Z,0
2016-06-15T00:18:40.902Z,0
2016-06-15T00:19:41.093Z,0
2016-06-15T00:20:40.846Z,0
2016-06-15T00:21:40.819Z,0
2016-06-15T00:22:40.805Z,0
2016-06-15T00:23:40.778Z,0
2016-06-15T00:24:40.748Z,0
2016-06-15T00:25:40.752Z,0
2016-06-15T00:26:40.708Z,0
2016-06-15T00:27:40.680Z,0
2016-06-15T00:28:40.667Z,0
2016-06-15T00:29:40.639Z,0
2016-06-15T00:30:40.626Z,0
2016-06-15T00:31:40.614Z,0
2016-06-15T00:32:40.586Z,0
2016-06-15T00:33:40.558Z,0
2016-06-15T00:34:40.545Z,0
2016-06-15T00:35:40.532Z,0
2016-06-15T00:36:40.505Z,0
2016-06-15T00:37:40.476Z,0
2016-06-15T00:38:40.448Z,0
2016-06-15T00:39:40.436Z,0
2016-06-15T00:40:40.439Z,0
2016-06-15T00:41:40.394Z,0
2016-06-15T00:42:40.383Z,0
2016-06-15T00:43:40.354Z,0
2016-06-15T00:44:40.326Z,0
2016-06-15T00:45:40.313Z,0
2016-06-15T00:46:40.285Z,0
2016-06-15T00:47:40.273Z,0
2016-06-15T00:48:40.244Z,0
2016-06-15T00:49:40.763Z,0
2016-06-15T00:50:40.235Z,0
2016-06-15T00:51:40.192Z,0
2016-06-15T00:52:40.163Z,0
2016-06-15T00:53:40.151Z,0
2016-06-15T00:54:40.138Z,0
2016-06-15T00:55:40.110Z,0
2016-06-15T00:56:40.082Z,0
2016-06-15T00:57:40.054Z,0
2016-06-15T00:58:39.916Z,0
2016-06-15T00:59:39.923Z,0
2016-06-15T01:00:40.104Z,0
2016-06-15T01:01:40.127Z,0
2016-06-15T01:02:39.979Z,0
2016-06-15T01:03:40.125Z,0
2016-06-15T01:04:40.110Z,0
2016-06-15T01:05:40.329Z,0
2016-06-15T01:06:40.095Z,0
2016-06-15T01:07:40.095Z,0
2016-06-15T01:08:39.917Z,0
2016-06-15T01:09:40.098Z,0
2016-06-15T01:10:40.042Z,0
2016-06-15T01:11:40.035Z,0
2016-06-15T01:12:40.011Z,0
2016-06-15T01:13:39.986Z,0
2016-06-15T01:14:39.974Z,0
2016-06-15T01:15:39.948Z,0
2016-06-15T01:16:39.937Z,0
2016-06-15T01:17:39.910Z,0
2016-06-15T01:18:39.884Z,0
2016-06-15T01:19:39.903Z,0
2016-06-15T01:20:39.719Z,0
2016-06-15T01:21:39.832Z,0
2016-06-15T01:22:39.821Z,0
2016-06-15T01:23:39.793Z,0
2016-06-15T01:24:39.764Z,0
2016-06-15T01:25:39.752Z,0
2016-06-15T01:26:39.723Z,0
2016-06-15T01:27:39.696Z,0
2016-06-15T01:28:39.683Z,0
2016-06-15T01:29:39.671Z,0
2016-06-15T01:30:39.642Z,0
2016-06-15T01:31:39.630Z,0
2016-06-15T01:32:39.601Z,0
2016-06-15T01:33:39.574Z,0
2016-06-15T01:34:39.560Z,0
2016-06-15T01:35:40.095Z,0
2016-06-15T01:36:39.519Z,0
2016-06-15T01:37:39.492Z,0
2016-06-15T01:38:39.479Z,0
2016-06-15T01:39:39.467Z,0
2016-06-15T01:40:39.438Z,0
2016-06-15T01:41:39.410Z,0
2016-06-15T01:42:39.397Z,0
2016-06-15T01:43:39.369Z,0
2016-06-15T01:44:39.342Z,0
2016-06-15T01:45:39.328Z,0
2016-06-15T01:46:39.300Z,0
2016-06-15T01:47:39.287Z,0
2016-06-15T01:48:39.260Z,0
2016-06-15T01:49:39.232Z,0
2016-06-15T01:50:39.235Z,0
2016-06-15T01:51:39.191Z,0
2016-06-15T01:52:39.178Z,0
2016-06-15T01:53:39.150Z,0
2016-06-15T01:54:39.153Z,0
2016-06-15T01:55:39.109Z,0
2016-06-15T01:56:39.097Z,0
2016-06-15T01:57:39.068Z,0
2016-06-15T01:58:39.056Z,0
2016-06-15T01:59:39.044Z,0
2016-06-15T02:00:39.032Z,0
2016-06-15T02:01:39.003Z,0
2016-06-15T02:02:38.975Z,0
2016-06-15T02:03:38.931Z,0
2016-06-15T02:04:38.934Z,0
2016-06-15T02:05:39.468Z,0
2016-06-15T02:06:38.893Z,0
2016-06-15T02:07:38.865Z,0
2016-06-15T02:08:38.837Z,0
2016-06-15T02:09:38.824Z,0
2016-06-15T02:10:38.796Z,0
2016-06-15T02:11:38.784Z,0
2016-06-15T02:12:38.756Z,0
2016-06-15T02:13:38.728Z,0
2016-06-15T02:14:38.731Z,0
2016-06-15T02:15:38.687Z,0
2016-06-15T02:16:38.674Z,0
2016-06-15T02:17:38.662Z,0
2016-06-15T02:18:38.633Z,0
2016-06-15T02:19:38.605Z,0
2016-06-15T02:20:38.733Z,0
2016-06-15T02:21:38.564Z,0
2016-06-15T02:22:38.553Z,0
2016-06-15T02:23:38.539Z,0
2016-06-15T02:24:38.527Z,4
2016-06-15T02:25:38.498Z,4
2016-06-15T02:26:38.470Z,4
2016-06-15T02:27:38.442Z,0
2016-06-15T02:28:38.414Z,0
2016-06-15T02:29:38.401Z,4
2016-06-15T02:30:38.389Z,4
2016-06-15T02:31:38.204Z,4
2016-06-15T02:32:38.333Z,4
2016-06-15T02:33:38.320Z,4
2016-06-15T02:34:38.276Z,8
2016-06-15T02:35:38.623Z,4
2016-06-15T02:36:38.267Z,8
2016-06-15T02:37:38.223Z,8
2016-06-15T02:38:38.210Z,12
2016-06-15T02:39:38.182Z,12
2016-06-15T02:40:38.154Z,12
2016-06-15T02:41:38.142Z,16
2016-06-15T02:42:38.113Z,16
2016-06-15T02:43:38.117Z,16
2016-06-15T02:44:38.088Z,16
2016-06-15T02:45:38.060Z,20
2016-06-15T02:46:38.048Z,24
2016-06-15T02:47:38.019Z,24
2016-06-15T02:48:37.991Z,24
2016-06-15T02:49:37.963Z,24
2016-06-15T02:50:37.670Z,24
2016-06-15T02:51:37.922Z,24
2016-06-15T02:52:37.895Z,24
2016-06-15T02:53:37.881Z,24
2016-06-15T02:54:37.869Z,28
2016-06-15T02:55:37.857Z,28
2016-06-15T02:56:37.829Z,28
2016-06-15T02:57:37.799Z,32
2016-06-15T02:58:37.788Z,40
2016-06-15T02:59:37.758Z,44
2016-06-15T03:00:37.731Z,52
2016-06-15T03:01:37.719Z,60
2016-06-15T03:02:37.707Z,72
2016-06-15T03:03:37.662Z,84
2016-06-15T03:04:37.649Z,96
2016-06-15T03:05:38.012Z,104
2016-06-15T03:06:37.453Z,120
2016-06-15T03:07:37.581Z,132
2016-06-15T03:08:37.553Z,148
2016-06-15T03:09:37.556Z,156
2016-06-15T03:10:37.527Z,168
2016-06-15T03:11:37.515Z,180
2016-06-15T03:12:37.471Z,196
2016-06-15T03:13:37.459Z,208
2016-06-15T03:14:37.430Z,220
2016-06-15T03:15:37.418Z,232
2016-06-15T03:16:37.390Z,248
2016-06-15T03:17:37.394Z,264
2016-06-15T03:18:37.349Z,284
2016-06-15T03:19:37.352Z,300
2016-06-15T03:20:37.323Z,320
2016-06-15T03:21:37.280Z,340
2016-06-15T03:22:37.267Z,360
2016-06-15T03:23:37.240Z,384
2016-06-15T03:24:37.210Z,404
2016-06-15T03:25:37.199Z,424
2016-06-15T03:26:37.186Z,444
2016-06-15T03:27:37.158Z,468
2016-06-15T03:28:37.145Z,488
2016-06-15T03:29:37.133Z,516
2016-06-15T03:30:36.933Z,540
2016-06-15T03:31:36.904Z,572
2016-06-15T03:32:37.048Z,600
2016-06-15T03:33:37.035Z,632
2016-06-15T03:34:37.008Z,664
2016-06-15T03:35:36.885Z,696
2016-06-15T03:36:36.967Z,736
2016-06-15T03:37:36.939Z,780
2016-06-15T03:38:36.911Z,828
2016-06-15T03:39:36.898Z,880
2016-06-15T03:40:36.885Z,932
2016-06-15T03:41:36.873Z,984
2016-06-15T03:42:36.829Z,1056
2016-06-15T03:43:36.801Z,1120
2016-06-15T03:44:36.788Z,1192
2016-06-15T03:45:36.776Z,1272
2016-06-15T03:46:36.747Z,1364
2016-06-15T03:47:36.720Z,1460
2016-06-15T03:48:36.550Z,1568
2016-06-15T03:49:36.679Z,1692
2016-06-15T03:50:36.509Z,1812
2016-06-15T03:51:36.841Z,1940
2016-06-15T03:52:36.468Z,2060
2016-06-15T03:53:36.582Z,2164
2016-06-15T03:54:36.584Z,2248
2016-06-15T03:55:36.572Z,2304
2016-06-15T03:56:36.544Z,2340
2016-06-15T03:57:36.500Z,2356
2016-06-15T03:58:36.488Z,2372
2016-06-15T03:59:36.459Z,2392
2016-06-15T04:00:36.275Z,2404
2016-06-15T04:01:36.419Z,2412
2016-06-15T04:02:36.390Z,2420
2016-06-15T04:03:36.378Z,2408
2016-06-15T04:04:36.365Z,2388
2016-06-15T04:05:36.431Z,2360
2016-06-15T04:06:36.340Z,2344
2016-06-15T04:07:36.140Z,2380
2016-06-15T04:08:36.268Z,2476
2016-06-15T04:09:36.256Z,2576
2016-06-15T04:10:36.227Z,2624
2016-06-15T04:11:36.199Z,2604
2016-06-15T04:12:36.171Z,2568
2016-06-15T04:13:36.158Z,2564
2016-06-15T04:14:36.130Z,2600
2016-06-15T04:15:36.118Z,2680
2016-06-15T04:16:36.105Z,2788
2016-06-15T04:17:36.078Z,2916
2016-06-15T04:18:36.065Z,3076
2016-06-15T04:19:36.021Z,3268
2016-06-15T04:20:36.680Z,3460
2016-06-15T04:21:35.996Z,3640
2016-06-15T04:22:35.968Z,3852
2016-06-15T04:23:35.955Z,4068
2016-06-15T04:24:35.928Z,4260
2016-06-15T04:25:35.898Z,4396
2016-06-15T04:26:35.887Z,4460
2016-06-15T04:27:35.858Z,4500
2016-06-15T04:28:35.830Z,4536
2016-06-15T04:29:35.818Z,4516
2016-06-15T04:30:35.805Z,4404
2016-06-15T04:31:35.777Z,4268
2016-06-15T04:32:35.749Z,4180
2016-06-15T04:33:35.752Z,4108
2016-06-15T04:34:35.739Z,4040
2016-06-15T04:35:36.664Z,3956
2016-06-15T04:36:35.761Z,3824
2016-06-15T04:37:35.670Z,3556
2016-06-15T04:38:35.626Z,3236
2016-06-15T04:39:35.613Z,2988
2016-06-15T04:40:35.586Z,2860
2016-06-15T04:41:35.572Z,2760
2016-06-15T04:42:35.560Z,2788
2016-06-15T04:43:35.532Z,2836
2016-06-15T04:44:35.488Z,2972
2016-06-15T04:45:35.475Z,3328
2016-06-15T04:46:35.463Z,3748
2016-06-15T04:47:35.434Z,4196
2016-06-15T04:48:35.423Z,4736
2016-06-15T04:49:35.410Z,5252
2016-06-15T04:50:35.382Z,5700
2016-06-15T04:51:35.713Z,6172
2016-06-15T04:52:35.356Z,6592
2016-06-15T04:53:35.328Z,6856
2016-06-15T04:54:35.300Z,6944
2016-06-15T04:55:35.287Z,6928
2016-06-15T04:56:35.259Z,6876
2016-06-15T04:57:35.232Z,6868
2016-06-15T04:58:35.203Z,6736
2016-06-15T04:59:35.191Z,6392
2016-06-15T05:00:35.177Z,6012
2016-06-15T05:01:35.009Z,5684
2016-06-15T05:02:35.137Z,5420
2016-06-15T05:03:35.109Z,5220
2016-06-15T05:04:35.081Z,4908
2016-06-15T05:05:35.068Z,4704
2016-06-15T05:06:35.134Z,4676
2016-06-15T05:07:35.043Z,4788
2016-06-15T05:08:35.016Z,4916
2016-06-15T05:09:35.002Z,5052
2016-06-15T05:10:34.975Z,5568
2016-06-15T05:11:34.946Z,7936
2016-06-15T05:12:34.918Z,6620
2016-06-15T05:13:34.906Z,7344
2016-06-15T05:14:34.878Z,7988
2016-06-15T05:15:34.865Z,8324
2016-06-15T05:16:34.837Z,8460
2016-06-15T05:17:34.824Z,8352
2016-06-15T05:18:34.796Z,8316
2016-06-15T05:19:34.784Z,8332
2016-06-15T05:20:34.614Z,9520
2016-06-15T05:21:35.446Z,12628
2016-06-15T05:22:34.761Z,14284
2016-06-15T05:23:34.702Z,11888
2016-06-15T05:24:34.689Z,9300
2016-06-15T05:25:34.677Z,9108
2016-06-15T05:26:34.492Z,9144
2016-06-15T05:27:34.636Z,9064
2016-06-15T05:28:34.608Z,8972
2016-06-15T05:29:34.595Z,9008
2016-06-15T05:30:34.567Z,9272
2016-06-15T05:31:34.555Z,9604
2016-06-15T05:32:34.526Z,9880
2016-06-15T05:33:34.357Z,10028
2016-06-15T05:34:34.485Z,10056
2016-06-15T05:35:34.458Z,10088
2016-06-15T05:36:34.976Z,10276
2016-06-15T05:37:34.432Z,10668
2016-06-15T05:38:34.404Z,11160
2016-06-15T05:39:34.391Z,11864
2016-06-15T05:40:34.378Z,12344
2016-06-15T05:41:34.351Z,12524
2016-06-15T05:42:34.339Z,12584
2016-06-15T05:43:34.325Z,12720
2016-06-15T05:44:34.313Z,12828
2016-06-15T05:45:34.269Z,13064
2016-06-15T05:46:34.258Z,13396
2016-06-15T05:47:34.244Z,13696
2016-06-15T05:48:34.233Z,14152
2016-06-15T05:49:34.203Z,14948
2016-06-15T05:50:34.191Z,16864
2016-06-15T05:51:34.491Z,22816
2016-06-15T05:52:34.151Z,18656
2016-06-15T05:53:34.137Z,18880
2016-06-15T05:54:34.110Z,20960
2016-06-15T05:55:34.096Z,19968
2016-06-15T05:56:34.069Z,17304
2016-06-15T05:57:34.056Z,17224
2016-06-15T05:58:34.059Z,18912
2016-06-15T05:59:33.875Z,16868
2016-06-15T06:00:34.019Z,15316
2016-06-15T06:01:33.975Z,16048
2016-06-15T06:02:33.963Z,16212
2016-06-15T06:03:33.949Z,13344
2016-06-15T06:04:33.922Z,12744
2016-06-15T06:05:33.924Z,12252
2016-06-15T06:06:34.958Z,11552
2016-06-15T06:07:33.884Z,10992
2016-06-15T06:08:33.856Z,13784
2016-06-15T06:09:33.842Z,8748
2016-06-15T06:10:33.831Z,7764
2016-06-15T06:11:33.818Z,7328
2016-06-15T06:12:33.790Z,6996
2016-06-15T06:13:33.763Z,6648
2016-06-15T06:14:33.749Z,6432
2016-06-15T06:15:33.737Z,6292
2016-06-15T06:16:33.724Z,6332
2016-06-15T06:17:33.712Z,6724
2016-06-15T06:18:33.683Z,7540
2016-06-15T06:19:33.671Z,8504
2016-06-15T06:20:33.502Z,9156
2016-06-15T06:21:33.709Z,9220
2016-06-15T06:22:33.618Z,8984
2016-06-15T06:23:33.590Z,8764
2016-06-15T06:24:33.577Z,8760
2016-06-15T06:25:33.564Z,9140
2016-06-15T06:26:33.552Z,9592
2016-06-15T06:27:33.539Z,9948
2016-06-15T06:28:33.511Z,10188
2016-06-15T06:29:33.515Z,10584
2016-06-15T06:30:33.470Z,11316
2016-06-15T06:31:33.458Z,12144
2016-06-15T06:32:33.429Z,13048
2016-06-15T06:33:33.417Z,14116
2016-06-15T06:34:33.405Z,15452
2016-06-15T06:35:33.392Z,18232
2016-06-15T06:36:34.583Z,18720
2016-06-15T06:37:33.194Z,17588
2016-06-15T06:38:33.339Z,17460
2016-06-15T06:39:33.310Z,17088
2016-06-15T06:40:33.313Z,15044
2016-06-15T06:41:33.270Z,13504
2016-06-15T06:42:33.257Z,12676
2016-06-15T06:43:34.479Z,12616
2016-06-15T06:44:33.904Z,13104
2016-06-15T06:45:33.220Z,13540
2016-06-15T06:46:33.206Z,13648
2016-06-15T06:47:33.195Z,13336
2016-06-15T06:48:33.166Z,12948
2016-06-15T06:49:33.138Z,12568
2016-06-15T06:50:33.126Z,12356
2016-06-15T06:51:33.222Z,12484
2016-06-15T06:52:33.100Z,12896
2016-06-15T06:53:33.072Z,13584
2016-06-15T06:54:33.060Z,14324
2016-06-15T06:55:33.048Z,14916
2016-06-15T06:56:32.862Z,15424
2016-06-15T06:57:33.007Z,16160
2016-06-15T06:58:32.993Z,16844
2016-06-15T06:59:32.810Z,17084
2016-06-15T07:00:32.797Z,16732
2016-06-15T07:01:32.925Z,15864
2016-06-15T07:02:32.913Z,14688
2016-06-15T07:03:32.900Z,13928
2016-06-15T07:04:32.887Z,13500
2016-06-15T07:05:32.875Z,13296
2016-06-15T07:06:34.253Z,13384
2016-06-15T07:07:32.850Z,13920
2016-06-15T07:08:32.806Z,14732
2016-06-15T07:09:32.793Z,15588
2016-06-15T07:10:32.780Z,16344
2016-06-15T07:11:32.613Z,17116
2016-06-15T07:12:32.755Z,17684
2016-06-15T07:13:32.728Z,18560
2016-06-15T07:14:32.714Z,18976
2016-06-15T07:15:32.687Z,18944
2016-06-15T07:16:32.674Z,18496
2016-06-15T07:17:32.662Z,18976
2016-06-15T07:18:32.712Z,17956
2016-06-15T07:19:32.637Z,17224
2016-06-15T07:20:32.608Z,16868
2016-06-15T07:21:32.815Z,16904
2016-06-15T07:22:32.427Z,16992
2016-06-15T07:23:32.570Z,17024
2016-06-15T07:24:32.558Z,19616
2016-06-15T07:25:32.531Z,18560
2016-06-15T07:26:32.517Z,17688
2016-06-15T07:27:32.505Z,19360
2016-06-15T07:28:32.493Z,19232
2016-06-15T07:29:32.464Z,20256
2016-06-15T07:30:32.452Z,22592
2016-06-15T07:31:32.439Z,22848
2016-06-15T07:32:32.458Z,22304
2016-06-15T07:33:32.414Z,22560
2016-06-15T07:34:32.401Z,26624
2016-06-15T07:35:32.373Z,40320
2016-06-15T07:36:32.735Z,33920
2016-06-15T07:37:32.363Z,44544
2016-06-15T07:38:32.320Z,33312
2016-06-15T07:39:32.307Z,27584
2016-06-15T07:40:32.311Z,23904
2016-06-15T07:41:32.298Z,22208
2016-06-15T07:42:32.253Z,22240
2016-06-15T07:43:32.257Z,21344
2016-06-15T07:44:32.245Z,21088
2016-06-15T07:45:32.217Z,20544
2016-06-15T07:46:32.204Z,20352
2016-06-15T07:47:32.176Z,19872
2016-06-15T07:48:32.179Z,19232
2016-06-15T07:49:32.150Z,18404
2016-06-15T07:50:32.169Z,20288
2016-06-15T07:51:32.594Z,20800
2016-06-15T07:52:32.160Z,22304
2016-06-15T07:53:32.100Z,23104
2016-06-15T07:54:32.087Z,21408
2016-06-15T07:55:32.091Z,19904
2016-06-15T07:56:32.063Z,18816
2016-06-15T07:57:32.035Z,17728
2016-06-15T07:58:32.006Z,17272
2016-06-15T07:59:32.010Z,17232
2016-06-15T08:00:31.997Z,17824
2016-06-15T08:01:31.828Z,19136
2016-06-15T08:02:31.972Z,20096
2016-06-15T08:03:31.943Z,20480
2016-06-15T08:04:31.931Z,21280
2016-06-15T08:05:31.918Z,22816
2016-06-15T08:06:31.750Z,25056
2016-06-15T08:07:32.377Z,26400
2016-06-15T08:08:31.866Z,25664
2016-06-15T08:09:31.869Z,21472
2016-06-15T08:10:31.699Z,28192
2016-06-15T08:11:31.828Z,28352
2016-06-15T08:12:31.799Z,23136
2016-06-15T08:13:31.803Z,19424
2016-06-15T08:14:31.821Z,17148
2016-06-15T08:15:31.793Z,17268
2016-06-15T08:16:31.750Z,15632
2016-06-15T08:17:31.768Z,14556
2016-06-15T08:18:31.755Z,12928
2016-06-15T08:19:31.555Z,11024
2016-06-15T08:20:31.699Z,9048
2016-06-15T08:21:33.968Z,7572
2016-06-15T08:22:33.595Z,7028
2016-06-15T08:23:31.240Z,6328
2016-06-15T08:24:31.493Z,5900
2016-06-15T08:25:31.621Z,5736
2016-06-15T08:26:31.624Z,5784
2016-06-15T08:27:31.596Z,5848
2016-06-15T08:28:31.583Z,5868
2016-06-15T08:29:31.414Z,5924
2016-06-15T08:30:31.589Z,5984
2016-06-15T08:31:31.545Z,6516
2016-06-15T08:32:31.518Z,7168
2016-06-15T08:33:31.489Z,8224
2016-06-15T08:34:31.477Z,97408
2016-06-15T08:35:31.464Z,101824
2016-06-15T08:36:31.170Z,100608
2016-06-15T08:37:31.298Z,89568
2016-06-15T08:38:31.410Z,74592
2016-06-15T08:39:31.258Z,73984
2016-06-15T08:40:31.401Z,69184
2016-06-15T08:41:31.217Z,70656
2016-06-15T08:42:31.220Z,70304
2016-06-15T08:43:31.363Z,88544
2016-06-15T08:44:31.366Z,96960
2016-06-15T08:45:31.339Z,109280
2016-06-15T08:46:31.325Z,115360
2016-06-15T08:47:31.314Z,115360
2016-06-15T08:48:31.160Z,108096
2016-06-15T08:49:31.163Z,98752
2016-06-15T08:50:31.292Z,88544
2016-06-15T08:51:31.465Z,61792
2016-06-15T08:52:31.344Z,70688
2016-06-15T08:53:31.284Z,36544
2016-06-15T08:54:31.288Z,34912
2016-06-15T08:55:31.275Z,20032
2016-06-15T08:56:31.106Z,17872
2016-06-15T08:57:31.250Z,16068
2016-06-15T08:58:31.237Z,14372
2016-06-15T08:59:31.225Z,13160
2016-06-15T09:00:31.259Z,12020
2016-06-15T09:01:33.747Z,11136
2016-06-15T09:02:31.204Z,10340
2016-06-15T09:03:31.207Z,9752
2016-06-15T09:04:31.194Z,9096
2016-06-15T09:05:31.181Z,8700
2016-06-15T09:06:31.184Z,8504
2016-06-15T09:07:31.031Z,8856
2016-06-15T09:08:31.160Z,9960
2016-06-15T09:09:31.131Z,10688
2016-06-15T09:10:31.134Z,11384
2016-06-15T09:11:31.122Z,12388
2016-06-15T09:12:31.109Z,14864
2016-06-15T09:13:37.480Z,21056
2016-06-15T09:14:31.059Z,20768
2016-06-15T09:16:04.534Z,25312
2016-06-15T09:16:31.049Z,27520
2016-06-15T09:17:31.068Z,28736
2016-06-15T09:18:31.025Z,30624
2016-06-15T09:19:31.011Z,29376
2016-06-15T09:20:30.999Z,27840
2016-06-15T09:21:31.003Z,24768
2016-06-15T09:22:31.223Z,25472
2016-06-15T09:23:30.962Z,27136
2016-06-15T09:24:30.948Z,30912
2016-06-15T09:25:30.937Z,28320
2016-06-15T09:26:30.907Z,25920
2016-06-15T09:27:30.911Z,21600
2016-06-15T09:28:30.742Z,15780
2016-06-15T09:29:30.912Z,12364
2016-06-15T09:30:30.868Z,12316
2016-06-15T09:31:30.855Z,13272
2016-06-15T09:32:30.828Z,12148
2016-06-15T09:33:30.846Z,9312
2016-06-15T09:34:30.802Z,6464
2016-06-15T09:35:30.806Z,4924
2016-06-15T09:36:30.777Z,4124
2016-06-15T09:37:31.436Z,3960
2016-06-15T09:38:30.751Z,4156
2016-06-15T09:39:30.738Z,3956
2016-06-15T09:40:30.727Z,3408
2016-06-15T09:41:30.730Z,3256
2016-06-15T09:42:30.561Z,3452
2016-06-15T09:43:30.689Z,4152
2016-06-15T09:44:30.661Z,6092
2016-06-15T09:45:30.665Z,8784
2016-06-15T09:46:30.635Z,12832
2016-06-15T09:47:30.623Z,14892
2016-06-15T09:48:30.454Z,17492
2016-06-15T09:49:30.442Z,21376
2016-06-15T09:50:30.429Z,25344
2016-06-15T09:51:30.417Z,26816
2016-06-15T09:52:30.842Z,26304
2016-06-15T09:53:31.032Z,24384
2016-06-15T09:54:30.503Z,23264
2016-06-15T09:55:30.476Z,21952
2016-06-15T09:56:30.463Z,20352
2016-06-15T09:57:30.435Z,16904
2016-06-15T09:58:30.438Z,13860
2016-06-15T09:59:30.426Z,11752
2016-06-15T10:00:30.397Z,10408
2016-06-15T10:01:30.369Z,9392
2016-06-15T10:02:30.356Z,8596
2016-06-15T10:03:30.375Z,7736
2016-06-15T10:04:30.334Z,6984
2016-06-15T10:05:30.377Z,6400
2016-06-15T10:06:30.374Z,5852
2016-06-15T10:07:30.714Z,5732
2016-06-15T10:08:30.428Z,5820
2016-06-15T10:09:30.444Z,5984
2016-06-15T10:10:30.446Z,6136
2016-06-15T10:11:30.275Z,6368
2016-06-15T10:12:30.277Z,6716
2016-06-15T10:13:30.420Z,6916
2016-06-15T10:14:30.261Z,7512
2016-06-15T10:15:30.238Z,9200
2016-06-15T10:16:34.683Z,11280
2016-06-15T10:17:47.802Z,12628
2016-06-15T10:18:30.372Z,14148
2016-06-15T10:19:30.379Z,15492
2016-06-15T10:20:30.337Z,16456
2016-06-15T10:21:30.311Z,16792
2016-06-15T10:22:30.816Z,16268
2016-06-15T10:23:30.305Z,15328
2016-06-15T10:24:30.278Z,14352
2016-06-15T10:25:30.251Z,13500
2016-06-15T10:26:30.224Z,12884
2016-06-15T10:27:30.210Z,12680
2016-06-15T10:28:30.183Z,13064
2016-06-15T10:29:30.171Z,14000
2016-06-15T10:30:30.174Z,15300
2016-06-15T10:31:30.130Z,16408
2016-06-15T10:32:30.119Z,17408
2016-06-15T10:33:30.090Z,18432
2016-06-15T10:34:30.079Z,19200
2016-06-15T10:35:31.347Z,20032
2016-06-15T10:36:36.116Z,20896
2016-06-15T10:37:42.667Z,22080
2016-06-15T10:38:51.622Z,26432
2016-06-15T10:39:39.656Z,28800
2016-06-15T10:40:49.942Z,28512
2016-06-15T10:41:53.241Z,25312
2016-06-15T10:42:53.057Z,20960
2016-06-15T10:43:29.935Z,18368
2016-06-15T10:44:29.922Z,15764
2016-06-15T10:45:51.394Z,14204
2016-06-15T10:46:56.179Z,12712
2016-06-15T10:48:05.494Z,10908
2016-06-15T10:49:07.450Z,10520
2016-06-15T10:50:15.066Z,11408
2016-06-15T10:51:24.882Z,11760
2016-06-15T10:52:39.150Z,11840
2016-06-15T10:54:02.903Z,11152
2016-06-15T10:54:56.766Z,10176
2016-06-15T10:55:56.253Z,8728
2016-06-15T10:56:52.928Z,7608
2016-06-15T10:57:52.915Z,6660
2016-06-15T10:58:52.887Z,5816
2016-06-15T10:59:52.876Z,5108
2016-06-15T11:00:52.707Z,4632
2016-06-15T11:01:52.835Z,4388
2016-06-15T11:02:52.822Z,4312
2016-06-15T11:03:52.809Z,4300
2016-06-15T11:04:52.797Z,4384
2016-06-15T11:05:52.628Z,4416
2016-06-15T11:06:52.773Z,4428
2016-06-15T11:07:52.743Z,4508
2016-06-15T11:08:52.746Z,4724
2016-06-15T11:09:52.719Z,5080
2016-06-15T11:10:52.674Z,5496
2016-06-15T11:11:52.678Z,5844
2016-06-15T11:12:52.650Z,6176
2016-06-15T11:13:52.622Z,6540
2016-06-15T11:14:52.608Z,6916
2016-06-15T11:15:52.596Z,7196
2016-06-15T11:16:52.584Z,7364
2016-06-15T11:17:52.587Z,7732
2016-06-15T11:18:52.544Z,8460
2016-06-15T11:19:52.530Z,9792
2016-06-15T11:20:52.519Z,11772
2016-06-15T11:21:52.334Z,15812
2016-06-15T11:22:52.492Z,17160
2016-06-15T11:23:52.308Z,19232
2016-06-15T11:24:52.453Z,20320
2016-06-15T11:25:52.423Z,21344
2016-06-15T11:26:52.396Z,21664
2016-06-15T11:27:52.399Z,21056
2016-06-15T11:28:52.370Z,20384
2016-06-15T11:29:52.358Z,19968
2016-06-15T11:30:52.346Z,19264
2016-06-15T11:31:52.317Z,18128
2016-06-15T11:32:52.289Z,17732
2016-06-15T11:33:52.120Z,17488
2016-06-15T11:34:52.264Z,17284
2016-06-15T11:35:52.252Z,17048
2016-06-15T11:36:52.661Z,16788
2016-06-15T11:37:52.070Z,16400
2016-06-15T11:38:52.198Z,15604
2016-06-15T11:39:52.185Z,15440
2016-06-15T11:40:52.172Z,15400
2016-06-15T11:41:52.161Z,15016
2016-06-15T11:42:52.148Z,14832
2016-06-15T11:43:52.136Z,15260
2016-06-15T11:44:52.123Z,17156
2016-06-15T11:45:51.938Z,17980
2016-06-15T11:46:51.911Z,19072
2016-06-15T11:47:52.069Z,19712
2016-06-15T11:48:52.041Z,20576
2016-06-15T11:49:52.030Z,19840
2016-06-15T11:50:52.000Z,18656
2016-06-15T11:51:51.989Z,16368
2016-06-15T11:52:52.070Z,14716
2016-06-15T11:53:51.963Z,14824
2016-06-15T11:54:51.951Z,11896
2016-06-15T11:55:51.937Z,9684
2016-06-15T11:56:51.769Z,7816
2016-06-15T11:57:51.913Z,7368
2016-06-15T11:58:51.885Z,6484
2016-06-15T11:59:51.717Z,6696
2016-06-15T12:00:51.844Z,7192
2016-06-15T12:01:51.832Z,7996
2016-06-15T12:02:51.820Z,8216
2016-06-15T12:03:51.807Z,8220
2016-06-15T12:04:51.794Z,8824
2016-06-15T12:05:51.781Z,10044
2016-06-15T12:06:51.753Z,10732
2016-06-15T12:07:51.459Z,10724
2016-06-15T12:08:51.744Z,10660
2016-06-15T12:09:51.700Z,10576
2016-06-15T12:10:51.687Z,9796
2016-06-15T12:11:51.675Z,9188
2016-06-15T12:12:51.678Z,8948
2016-06-15T12:13:51.665Z,9440
2016-06-15T12:14:51.622Z,7948
2016-06-15T12:15:51.610Z,6420
2016-06-15T12:16:51.580Z,5248
2016-06-15T12:17:51.568Z,4700
2016-06-15T12:18:51.572Z,4888
2016-06-15T12:19:51.559Z,5420
2016-06-15T12:20:51.531Z,5668
2016-06-15T12:21:51.503Z,5652
2016-06-15T12:22:51.801Z,5428
2016-06-15T12:23:51.477Z,5176
2016-06-15T12:24:51.465Z,5008
2016-06-15T12:25:51.436Z,4976
2016-06-15T12:26:51.424Z,5036
2016-06-15T12:27:51.411Z,5116
2016-06-15T12:28:51.414Z,5164
2016-06-15T12:29:51.387Z,5124
2016-06-15T12:30:51.202Z,4972
2016-06-15T12:31:51.346Z,4696
2016-06-15T12:32:51.317Z,4436
2016-06-15T12:33:51.304Z,4132
2016-06-15T12:34:51.293Z,3744
2016-06-15T12:35:51.296Z,3356
2016-06-15T12:36:51.251Z,3072
2016-06-15T12:37:51.239Z,2816
2016-06-15T12:38:51.211Z,2620
2016-06-15T12:39:51.198Z,2500
2016-06-15T12:40:51.171Z,2420
2016-06-15T12:41:51.189Z,2352
2016-06-15T12:42:51.160Z,2284
2016-06-15T12:43:51.132Z,2240
2016-06-15T12:44:51.120Z,2292
2016-06-15T12:45:51.108Z,2392
2016-06-15T12:46:51.080Z,2520
2016-06-15T12:47:51.067Z,2708
2016-06-15T12:48:51.038Z,2940
2016-06-15T12:49:50.870Z,3204
2016-06-15T12:50:51.013Z,3532
2016-06-15T12:51:50.985Z,3940
2016-06-15T12:52:51.035Z,4380
2016-06-15T12:53:50.960Z,4912
2016-06-15T12:54:50.933Z,5624
2016-06-15T12:55:50.919Z,6572
2016-06-15T12:56:50.906Z,7708
2016-06-15T12:57:50.894Z,9016
2016-06-15T12:58:50.867Z,10556
2016-06-15T12:59:50.854Z,12340
2016-06-15T13:00:50.841Z,14000
2016-06-15T13:01:50.657Z,15408
2016-06-15T13:02:50.644Z,16672
2016-06-15T13:03:50.803Z,17672
2016-06-15T13:04:50.760Z,18784
2016-06-15T13:05:50.747Z,19456
2016-06-15T13:06:50.578Z,20000
2016-06-15T13:07:51.987Z,20416
2016-06-15T13:08:50.709Z,20736
2016-06-15T13:09:50.682Z,20832
2016-06-15T13:10:50.887Z,20896
2016-06-15T13:11:50.874Z,20736
2016-06-15T13:12:50.847Z,20192
2016-06-15T13:13:50.630Z,19648
2016-06-15T13:14:51.041Z,19136
2016-06-15T13:15:50.590Z,18656
2016-06-15T13:16:50.781Z,17856
2016-06-15T13:17:50.565Z,17232
2016-06-15T13:18:50.974Z,16584
2016-06-15T13:19:51.368Z,15836
2016-06-15T13:20:50.575Z,15028
2016-06-15T13:21:50.343Z,14176
2016-06-15T13:22:50.846Z,13260
2016-06-15T13:23:50.475Z,12460
2016-06-15T13:24:50.633Z,11664
2016-06-15T13:25:50.434Z,10960
2016-06-15T13:26:50.437Z,10320
2016-06-15T13:27:50.409Z,9704